Time;durP1;ratioP1;P1;durP2;ratioP2;P2;SDS_P1;SDS_P2;PMS_P1;PMS_P2;Temp;Humidity;BMP_temperature;BMP_pressure;BME280_temperature;BME280_humidity;BME280_pressure;Samples;Min_cycle;Max_cycle;Signal;HPM_P1;HPM_P2
2022/01/14 00:02:50;;;;;;;21.27;11.35;;;;;;;;;;6225224;28;20111;-70
2022/01/14 00:05:53;;;;;;;20.25;10.38;;;;;;;;;;6225792;28;20052;-71
2022/01/14 00:09:04;;;;;;;21.80;10.85;;;;;;;;;;6243286;28;20502;-71
2022/01/14 00:12:12;;;;;;;22.75;11.45;;;;;;;;;;6225493;28;20484;-71
2022/01/14 00:15:24;;;;;;;21.90;11.70;;;;;;;;;;6243345;28;20037;-71
2022/01/14 00:18:29;;;;;;;25.15;12.25;;;;;;;;;;6243397;28;20045;-70
2022/01/14 00:21:33;;;;;;;23.55;12.07;;;;;;;;;;6243203;28;20045;-72
2022/01/14 00:31:43;;;;;;;20.85;10.77;;;;;;;;;;6225268;28;20048;-72
2022/01/14 00:34:48;;;;;;;25.10;11.57;;;;;;;;;;6242819;28;20057;-72
2022/01/14 00:37:53;;;;;;;30.20;13.15;;;;;;;;;;6242700;28;20088;-71
2022/01/14 00:40:56;;;;;;;24.15;10.73;;;;;;;;;;6223043;28;20042;-71
2022/01/14 00:44:01;;;;;;;22.00;10.55;;;;;;;;;;6242086;28;20064;-73
2022/01/14 00:47:05;;;;;;;23.98;11.60;;;;;;;;;;6243031;28;20052;-71
2022/01/14 00:50:10;;;;;;;;;;;;;;;;;;6225204;28;20053;-72
2022/01/14 00:53:15;;;;;;;21.23;10.07;;;;;;;;;;6242575;28;20291;-72
2022/01/14 00:56:26;;;;;;;21.08;10.88;;;;;;;;;;6224860;28;20484;-72
2022/01/14 00:59:32;;;;;;;21.42;10.35;;;;;;;;;;6242239;28;20053;-72
2022/01/14 01:02:37;;;;;;;;;;;;;;;;;;6225104;28;20046;-74
2022/01/14 01:05:40;;;;;;;20.48;9.20;;;;;;;;;;6242542;28;19921;-71
2022/01/14 01:08:47;;;;;;;21.25;9.88;;;;;;;;;;6242217;28;20082;-72
2022/01/14 01:12:04;;;;;;;21.27;10.35;;;;;;;;;;6224274;28;20109;-71
2022/01/14 01:15:12;;;;;;;21.77;9.93;;;;;;;;;;6241711;28;20049;-72
2022/01/14 01:18:17;;;;;;;18.27;9.65;;;;;;;;;;6224338;28;20861;-72
2022/01/14 01:21:23;;;;;;;20.85;9.95;;;;;;;;;;6224314;28;20053;-70
2022/01/14 01:24:30;;;;;;;23.02;11.05;;;;;;;;;;6241973;28;20049;-73
2022/01/14 01:27:37;;;;;;;20.20;9.27;;;;;;;;;;6242123;28;20480;-73
2022/01/14 01:30:52;;;;;;;20.42;9.30;;;;;;;;;;6242107;28;20041;-73
2022/01/14 01:33:55;;;;;;;22.13;9.85;;;;;;;;;;6242015;28;20053;-74
2022/01/14 01:36:58;;;;;;;21.00;10.68;;;;;;;;;;6224360;28;20143;-71
2022/01/14 01:40:03;;;;;;;22.15;10.80;;;;;;;;;;6241892;28;20045;-71
2022/01/14 01:43:09;;;;;;;22.30;10.30;;;;;;;;;;6224064;28;20057;-72
2022/01/14 01:46:12;;;;;;;19.33;9.77;;;;;;;;;;6241681;28;20100;-74
2022/01/14 01:49:16;;;;;;;18.65;9.30;;;;;;;;;;6224344;28;20127;-73
2022/01/14 01:52:19;;;;;;;22.50;9.75;;;;;;;;;;6241911;28;20045;-73
2022/01/14 01:55:26;;;;;;;18.70;8.97;;;;;;;;;;6241625;28;20122;-72
2022/01/14 01:58:29;;;;;;;23.20;10.00;;;;;;;;;;6224152;28;20049;-70
2022/01/14 02:01:32;;;;;;;21.25;10.23;;;;;;;;;;6241524;28;20181;-73
2022/01/14 02:04:35;;;;;;;22.13;10.73;;;;;;;;;;6223885;28;20389;-72
2022/01/14 02:07:39;;;;;;;19.08;10.00;;;;;;;;;;6241453;28;20129;-73
2022/01/14 02:10:43;;;;;;;23.63;10.35;;;;;;;;;;6241650;28;20054;-72
2022/01/14 02:13:49;;;;;;;20.55;9.75;;;;;;;;;;6223854;28;20412;-71
2022/01/14 02:23:39;;;;;;;22.55;11.25;;;;;;;;;;6223637;28;20053;-72
2022/01/14 02:26:46;;;;;;;23.13;10.68;;;;;;;;;;6244610;28;20482;-72
2022/01/14 02:29:49;;;;;;;28.20;11.10;;;;;;;;;;6245571;28;20045;-72
2022/01/14 02:32:52;;;;;;;22.60;10.40;;;;;;;;;;6245748;28;20045;-72
2022/01/14 02:35:57;;;;;;;22.15;10.50;;;;;;;;;;6227956;28;20055;-72
2022/01/14 02:39:00;;;;;;;23.40;10.23;;;;;;;;;;6245408;28;20125;-73
2022/01/14 02:42:04;;;;;;;24.45;10.20;;;;;;;;;;6227672;28;20400;-73
2022/01/14 02:45:07;;;;;;;22.35;9.90;;;;;;;;;;6220782;28;20530;-73
2022/01/14 02:48:10;;;;;;;23.52;10.73;;;;;;;;;;6219364;28;20056;-72
2022/01/14 02:51:17;;;;;;;21.17;10.75;;;;;;;;;;6219368;28;20046;-72
2022/01/14 02:54:23;;;;;;;23.25;11.57;;;;;;;;;;6220838;28;20056;-72
2022/01/14 02:57:26;;;;;;;25.20;11.50;;;;;;;;;;6219221;28;20480;-72
2022/01/14 03:00:30;;;;;;;23.00;11.00;;;;;;;;;;6219135;28;20421;-72
2022/01/14 03:03:33;;;;;;;22.38;10.30;;;;;;;;;;6220661;28;20050;-73
2022/01/14 03:06:38;;;;;;;24.60;10.68;;;;;;;;;;6220490;28;20050;-73
2022/01/14 03:09:41;;;;;;;24.08;11.13;;;;;;;;;;6220292;28;20050;-72
2022/01/14 03:12:48;;;;;;;24.30;11.20;;;;;;;;;;6219150;28;20057;-72
2022/01/14 03:15:51;;;;;;;22.58;10.32;;;;;;;;;;6220305;28;20140;-73
2022/01/14 03:19:04;;;;;;;25.00;11.10;;;;;;;;;;6220108;28;20095;-72
2022/01/14 03:22:19;;;;;;;23.45;11.23;;;;;;;;;;6218672;28;20052;-72
2022/01/14 03:25:47;;;;;;;21.85;10.50;;;;;;;;;;6219890;28;20046;-72
2022/01/14 03:28:50;;;;;;;24.27;11.13;;;;;;;;;;6218785;28;20049;-72
2022/01/14 03:31:53;;;;;;;22.60;10.30;;;;;;;;;;6219735;28;20053;-72
2022/01/14 03:34:56;;;;;;;24.77;11.45;;;;;;;;;;6218493;28;20383;-73
2022/01/14 03:38:01;;;;;;;23.00;10.68;;;;;;;;;;6216491;28;20484;-72
2022/01/14 03:41:03;;;;;;;24.25;11.57;;;;;;;;;;6219076;28;20113;-72
2022/01/14 03:44:07;;;;;;;23.08;10.20;;;;;;;;;;6218023;28;20065;-72
2022/01/14 03:47:10;;;;;;;26.42;10.65;;;;;;;;;;6218080;28;20046;-71
2022/01/14 03:50:13;;;;;;;23.23;10.50;;;;;;;;;;6219394;28;20443;-72
2022/01/14 03:53:18;;;;;;;21.13;10.32;;;;;;;;;;6219334;28;20046;-71
2022/01/14 03:56:22;;;;;;;24.25;11.20;;;;;;;;;;6217988;28;20038;-72
2022/01/14 03:59:25;;;;;;;23.92;10.15;;;;;;;;;;6219601;28;20606;-72
2022/01/14 04:02:28;;;;;;;22.40;10.43;;;;;;;;;;6218738;28;20056;-71
2022/01/14 04:05:31;;;;;;;21.40;10.43;;;;;;;;;;6218944;28;20386;-72
2022/01/14 04:08:36;;;;;;;21.23;9.73;;;;;;;;;;6218994;28;20042;-72
2022/01/14 04:11:44;;;;;;;20.48;9.02;;;;;;;;;;6217557;28;20161;-72
2022/01/14 04:18:08;;;;;;;19.27;9.27;;;;;;;;;;6217390;28;20045;-72
2022/01/14 04:21:11;;;;;;;21.25;9.15;;;;;;;;;;6218670;28;20408;-72
2022/01/14 04:24:18;;;;;;;19.35;9.73;;;;;;;;;;6218518;28;20132;-72
2022/01/14 04:27:21;;;;;;;20.98;9.38;;;;;;;;;;6217243;28;20042;-71
2022/01/14 04:30:25;;;;;;;19.23;8.77;;;;;;;;;;6218402;28;20052;-71
2022/01/14 04:33:30;;;;;;;18.40;8.80;;;;;;;;;;6217118;28;20378;-72
2022/01/14 04:36:32;;;;;;;17.90;8.27;;;;;;;;;;6217095;28;20068;-72
2022/01/14 04:39:39;;;;;;;20.10;8.60;;;;;;;;;;6233390;28;20050;-71
2022/01/14 04:42:43;;;;;;;20.40;9.30;;;;;;;;;;6223082;28;20107;-72
2022/01/14 04:46:02;;;;;;;24.00;10.07;;;;;;;;;;6224878;28;20053;-72
2022/01/14 04:49:05;;;;;;;22.45;9.95;;;;;;;;;;6224353;28;20053;-73
2022/01/14 04:52:08;;;;;;;19.77;9.15;;;;;;;;;;6224754;28;20053;-72
2022/01/14 04:55:13;;;;;;;21.45;10.25;;;;;;;;;;6242459;28;20049;-72
2022/01/14 04:58:19;;;;;;;21.17;10.82;;;;;;;;;;6242327;28;20053;-72
2022/01/14 05:01:21;;;;;;;22.67;10.30;;;;;;;;;;6224592;28;20077;-72
2022/01/14 05:04:25;;;;;;;23.50;11.10;;;;;;;;;;6242487;28;20095;-73
2022/01/14 05:07:28;;;;;;;24.73;10.50;;;;;;;;;;6242510;28;20678;-73
2022/01/14 05:10:49;;;;;;;;;;;;;;;;;;6242852;28;20053;-70
2022/01/14 05:13:53;;;;;;;20.60;9.15;;;;;;;;;;6242488;28;20422;-71
2022/01/14 05:16:56;;;;;;;20.73;8.82;;;;;;;;;;6224750;28;20045;-72
2022/01/14 05:19:59;;;;;;;21.48;9.10;;;;;;;;;;6242055;28;20052;-72
2022/01/14 05:23:02;;;;;;;20.88;9.23;;;;;;;;;;6224385;28;20045;-72
2022/01/14 05:26:05;;;;;;;23.02;10.35;;;;;;;;;;6224494;28;20550;-72
2022/01/14 05:29:12;;;;;;;22.95;10.15;;;;;;;;;;6224192;28;20041;-71
2022/01/14 05:32:15;;;;;;;21.85;10.07;;;;;;;;;;6224100;28;20045;-72
2022/01/14 05:35:19;;;;;;;24.40;10.27;;;;;;;;;;6241745;28;20049;-71
2022/01/14 05:38:22;;;;;;;24.13;10.18;;;;;;;;;;6242293;28;20056;-71
2022/01/14 05:41:25;;;;;;;21.00;9.60;;;;;;;;;;6223932;28;20049;-71
2022/01/14 05:44:29;;;;;;;20.65;8.90;;;;;;;;;;6241835;28;20068;-71
2022/01/14 05:47:32;;;;;;;18.60;8.80;;;;;;;;;;6224358;28;20430;-71
2022/01/14 05:50:35;;;;;;;19.63;9.23;;;;;;;;;;6223973;28;20124;-72
2022/01/14 05:53:39;;;;;;;21.42;9.35;;;;;;;;;;6223919;28;20473;-71
2022/01/14 05:56:42;;;;;;;18.83;8.55;;;;;;;;;;6241684;28;20045;-71
2022/01/14 05:59:46;;;;;;;20.77;8.88;;;;;;;;;;6241986;28;20046;-71
2022/01/14 06:02:52;;;;;;;18.48;8.88;;;;;;;;;;6228354;28;20042;-73
2022/01/14 06:05:55;;;;;;;19.50;9.02;;;;;;;;;;6228451;28;20396;-71
2022/01/14 06:08:58;;;;;;;18.35;8.77;;;;;;;;;;6228623;28;20419;-71
2022/01/14 06:12:01;;;;;;;18.88;8.85;;;;;;;;;;6245968;28;20049;-72
2022/01/14 06:15:06;;;;;;;18.42;8.57;;;;;;;;;;6246153;28;20053;-72
2022/01/14 06:18:09;;;;;;;17.40;8.73;;;;;;;;;;6246185;28;20443;-72
2022/01/14 06:21:12;;;;;;;19.42;8.40;;;;;;;;;;6228000;28;20055;-70
2022/01/14 06:24:15;;;;;;;16.80;8.00;;;;;;;;;;6245796;28;20049;-70
2022/01/14 06:27:20;;;;;;;18.70;9.13;;;;;;;;;;6227919;28;20048;-70
2022/01/14 06:30:24;;;;;;;19.95;9.55;;;;;;;;;;6228071;28;20052;-70
2022/01/14 06:33:30;;;;;;;17.70;7.93;;;;;;;;;;6227575;28;20049;-70
2022/01/14 06:36:33;;;;;;;20.25;9.07;;;;;;;;;;6245570;28;20049;-70
2022/01/14 06:39:36;;;;;;;19.27;8.27;;;;;;;;;;6245551;28;20124;-70
2022/01/14 06:42:40;;;;;;;19.60;8.88;;;;;;;;;;6227164;28;20061;-70
2022/01/14 06:45:44;;;;;;;17.70;8.85;;;;;;;;;;6227568;28;20049;-69
2022/01/14 06:48:47;;;;;;;17.67;8.68;;;;;;;;;;6244983;28;20541;-72
2022/01/14 06:51:50;;;;;;;17.30;9.05;;;;;;;;;;6245312;28;20579;-71
2022/01/14 06:54:53;;;;;;;19.10;9.20;;;;;;;;;;6227202;28;20408;-72
2022/01/14 06:57:56;;;;;;;18.52;8.85;;;;;;;;;;6227275;28;20400;-72
2022/01/14 07:01:00;;;;;;;18.90;9.23;;;;;;;;;;6227470;28;20049;-71
2022/01/14 07:04:04;;;;;;;18.50;8.88;;;;;;;;;;6244617;28;20053;-71
2022/01/14 07:07:07;;;;;;;20.27;8.98;;;;;;;;;;6245169;28;20119;-72
2022/01/14 07:10:10;;;;;;;20.95;8.63;;;;;;;;;;6227141;28;20083;-71
2022/01/14 07:13:13;;;;;;;19.20;9.00;;;;;;;;;;6225972;28;20052;-71
2022/01/14 07:16:18;;;;;;;16.25;7.65;;;;;;;;;;6244538;28;20156;-71
2022/01/14 07:19:22;;;;;;;17.17;8.65;;;;;;;;;;6226816;28;20111;-72
2022/01/14 07:22:24;;;;;;;16.38;7.68;;;;;;;;;;6226779;28;20275;-71
2022/01/14 07:25:28;;;;;;;19.55;8.68;;;;;;;;;;6244232;28;20500;-71
2022/01/14 07:28:30;;;;;;;19.90;8.48;;;;;;;;;;6244315;28;20420;-71
2022/01/14 07:31:35;;;;;;;16.67;7.78;;;;;;;;;;6244567;28;20041;-71
2022/01/14 07:34:38;;;;;;;17.02;7.60;;;;;;;;;;6226377;28;20049;-70
2022/01/14 07:37:41;;;;;;;18.75;7.05;;;;;;;;;;6243884;28;20136;-71
2022/01/14 07:40:44;;;;;;;15.85;6.82;;;;;;;;;;6243882;28;20041;-72
2022/01/14 07:43:49;;;;;;;15.00;7.07;;;;;;;;;;6244026;28;20152;-73
2022/01/14 07:46:56;;;;;;;12.57;6.50;;;;;;;;;;6225996;28;20128;-71
2022/01/14 07:50:02;;;;;;;14.98;6.00;;;;;;;;;;6243898;28;20049;-72
2022/01/14 07:53:04;;;;;;;15.60;7.25;;;;;;;;;;6243801;28;20045;-71
2022/01/14 07:56:11;;;;;;;15.88;7.30;;;;;;;;;;6225693;28;20499;-70
2022/01/14 07:59:15;;;;;;;12.50;5.97;;;;;;;;;;6243977;28;20044;-69
2022/01/14 08:02:22;;;;;;;13.63;6.45;;;;;;;;;;6225477;28;20049;-70
2022/01/14 08:05:25;;;;;;;14.65;6.90;;;;;;;;;;6243371;28;20524;-72
2022/01/14 08:08:30;;;;;;;12.43;5.90;;;;;;;;;;6225747;28;20057;-71
2022/01/14 08:11:32;;;;;;;15.85;6.97;;;;;;;;;;6243310;28;20291;-71
2022/01/14 08:14:38;;;;;;;12.75;6.00;;;;;;;;;;6225643;28;20480;-70
2022/01/14 08:17:42;;;;;;;14.65;6.90;;;;;;;;;;6225376;28;20045;-71
2022/01/14 08:20:45;;;;;;;17.58;7.47;;;;;;;;;;6225565;28;20049;-70
2022/01/14 08:23:48;;;;;;;17.27;7.13;;;;;;;;;;6225015;28;20056;-70
2022/01/14 08:26:51;;;;;;;16.77;8.02;;;;;;;;;;6225232;28;20046;-71
2022/01/14 08:29:54;;;;;;;15.82;7.28;;;;;;;;;;6224907;28;20049;-73
2022/01/14 08:32:58;;;;;;;15.25;7.13;;;;;;;;;;6224963;28;20050;-71
2022/01/14 08:36:01;;;;;;;15.23;6.95;;;;;;;;;;6242881;28;20120;-70
2022/01/14 08:39:04;;;;;;;17.40;7.32;;;;;;;;;;6242584;28;20104;-70
2022/01/14 08:42:11;;;;;;;13.18;6.72;;;;;;;;;;6225075;28;20049;-71
2022/01/14 08:45:18;;;;;;;17.60;7.50;;;;;;;;;;6242518;28;20483;-71
2022/01/14 08:48:22;;;;;;;14.63;6.40;;;;;;;;;;6224541;28;20049;-71
2022/01/14 08:51:26;;;;;;;16.20;7.30;;;;;;;;;;6242462;28;20419;-71
2022/01/14 08:54:29;;;;;;;19.08;7.32;;;;;;;;;;6224773;28;20389;-72
2022/01/14 08:57:32;;;;;;;14.35;6.70;;;;;;;;;;6225012;28;20389;-72
2022/01/14 09:00:38;;;;;;;17.38;7.78;;;;;;;;;;6224434;28;20403;-71
2022/01/14 09:03:42;;;;;;;15.10;6.70;;;;;;;;;;6224598;28;20045;-70
2022/01/14 09:06:45;;;;;;;13.02;6.28;;;;;;;;;;6242245;28;20502;-70
2022/01/14 09:09:48;;;;;;;15.00;6.32;;;;;;;;;;6224212;28;20168;-71
2022/01/14 09:12:54;;;;;;;15.55;6.55;;;;;;;;;;6224378;28;20053;-72
2022/01/14 09:15:59;;;;;;;17.73;7.15;;;;;;;;;;6224638;28;20046;-72
2022/01/14 09:19:05;;;;;;;14.63;6.68;;;;;;;;;;6224640;28;20045;-73
2022/01/14 09:22:08;;;;;;;13.07;6.22;;;;;;;;;;6241573;28;20616;-72
2022/01/14 09:25:24;;;;;;;;;;;;;;;;;;6224830;28;20050;-71
2022/01/14 09:28:28;;;;;;;16.40;6.80;;;;;;;;;;6241949;28;19921;-72
2022/01/14 09:31:31;;;;;;;21.13;7.18;;;;;;;;;;6241535;28;20141;-72
2022/01/14 09:34:36;;;;;;;10.93;5.32;;;;;;;;;;6224785;28;20049;-71
2022/01/14 09:37:39;;;;;;;13.95;6.60;;;;;;;;;;6246805;28;20051;-70
2022/01/14 09:40:44;;;;;;;13.05;5.60;;;;;;;;;;6246990;28;20496;-71
2022/01/14 09:43:47;;;;;;;12.38;5.70;;;;;;;;;;6246107;28;20187;-72
2022/01/14 09:46:53;;;;;;;12.82;5.72;;;;;;;;;;6246801;28;20045;-72
2022/01/14 09:49:57;;;;;;;14.40;6.10;;;;;;;;;;6229362;28;20057;-71
2022/01/14 09:53:00;;;;;;;12.73;5.55;;;;;;;;;;6246309;28;20045;-71
2022/01/14 09:56:04;;;;;;;10.88;5.05;;;;;;;;;;6229005;28;20049;-72
2022/01/14 09:59:07;;;;;;;14.27;6.35;;;;;;;;;;6246174;28;20480;-71
2022/01/14 10:02:27;;;;;;;13.52;6.22;;;;;;;;;;6246300;28;20045;-71
2022/01/14 10:05:33;;;;;;;13.40;6.28;;;;;;;;;;6245885;28;20108;-72
2022/01/14 10:08:36;;;;;;;14.38;5.72;;;;;;;;;;6228756;28;20080;-72
2022/01/14 10:11:42;;;;;;;12.20;5.65;;;;;;;;;;6228491;28;20049;-70
2022/01/14 10:14:53;;;;;;;14.95;5.70;;;;;;;;;;6245876;28;20109;-70
2022/01/14 10:18:00;;;;;;;14.25;5.82;;;;;;;;;;6245904;28;20536;-70
2022/01/14 10:21:06;;;;;;;10.68;5.30;;;;;;;;;;6245770;28;20041;-72
2022/01/14 10:24:11;;;;;;;14.15;5.90;;;;;;;;;;6245820;28;20062;-70
2022/01/14 10:27:14;;;;;;;13.32;5.47;;;;;;;;;;6245917;28;20126;-73
2022/01/14 10:30:18;;;;;;;13.15;5.78;;;;;;;;;;6245749;28;20045;-71
2022/01/14 10:33:22;;;;;;;11.77;6.15;;;;;;;;;;6227751;28;20385;-71
2022/01/14 10:36:26;;;;;;;11.63;6.13;;;;;;;;;;6227631;28;20042;-71
2022/01/14 10:39:29;;;;;;;11.23;5.53;;;;;;;;;;6245567;28;20041;-73
2022/01/14 10:42:34;;;;;;;16.00;6.72;;;;;;;;;;6227272;28;20476;-71
2022/01/14 10:45:40;;;;;;;14.20;6.63;;;;;;;;;;6245396;28;20038;-72
2022/01/14 10:48:46;;;;;;;10.27;4.97;;;;;;;;;;6244954;28;20049;-73
2022/01/14 10:51:48;;;;;;;;;;;;;;;;;;6228123;28;20077;-73
2022/01/14 10:54:56;;;;;;;11.73;5.05;;;;;;;;;;6245221;28;20364;-73
2022/01/14 10:58:01;;;;;;;15.63;6.23;;;;;;;;;;6244726;28;20045;-74
2022/01/14 11:01:21;;;;;;;11.85;5.40;;;;;;;;;;6244780;28;20298;-74
2022/01/14 11:04:28;;;;;;;10.95;5.53;;;;;;;;;;6244698;28;20045;-72
2022/01/14 11:07:34;;;;;;;9.70;4.75;;;;;;;;;;6245058;28;20546;-71
2022/01/14 11:10:40;;;;;;;11.23;5.18;;;;;;;;;;6243732;28;20100;-73
2022/01/14 11:13:44;;;;;;;10.63;5.28;;;;;;;;;;6226876;28;20115;-70
2022/01/14 11:16:47;;;;;;;13.95;5.55;;;;;;;;;;6244550;28;20053;-72
2022/01/14 11:19:50;;;;;;;12.38;5.63;;;;;;;;;;6244452;28;20046;-70
2022/01/14 11:26:19;;;;;;;11.32;5.50;;;;;;;;;;6244435;28;20502;-70
2022/01/14 11:29:23;;;;;;;14.20;6.05;;;;;;;;;;6244354;28;20134;-71
2022/01/14 11:32:27;;;;;;;13.75;6.38;;;;;;;;;;6243728;28;20049;-69
2022/01/14 11:35:31;;;;;;;;;;;;;;;;;;6244818;28;20065;-72
2022/01/14 11:38:42;;;;;;;28.90;14.32;;;;;;;;;;6243958;28;20401;-70
2022/01/14 11:41:54;;;;;;;14.05;6.70;;;;;;;;;;6244409;28;20404;-72
2022/01/14 11:45:01;;;;;;;23.10;8.65;;;;;;;;;;6225379;28;20057;-70
2022/01/14 11:48:04;;;;;;;13.75;6.10;;;;;;;;;;6243829;28;20060;-68
2022/01/14 11:51:08;;;;;;;14.15;6.57;;;;;;;;;;6225903;28;20049;-68
2022/01/14 11:54:14;;;;;;;12.63;6.40;;;;;;;;;;6236854;28;20049;-70
2022/01/14 11:57:36;;;;;;;13.15;5.90;;;;;;;;;;6250226;28;20119;-70
2022/01/14 12:00:43;;;;;;;14.85;7.22;;;;;;;;;;6250281;28;20098;-70
2022/01/14 12:03:50;;;;;;;13.30;6.00;;;;;;;;;;6250334;28;20415;-70
2022/01/14 12:06:59;;;;;;;13.05;5.57;;;;;;;;;;6267602;28;20060;-73
2022/01/14 12:10:07;;;;;;;11.40;6.10;;;;;;;;;;6250518;28;20045;-71
2022/01/14 12:13:18;;;;;;;11.23;5.53;;;;;;;;;;6267915;28;20126;-72
2022/01/14 12:16:38;;;;;;;10.85;5.45;;;;;;;;;;6250142;28;20384;-71
2022/01/14 12:19:41;;;;;;;12.32;5.60;;;;;;;;;;6266873;28;20774;-72
2022/01/14 12:23:04;;;;;;;10.10;5.22;;;;;;;;;;6257413;28;20049;-72
2022/01/14 12:26:13;;;;;;;8.95;4.70;;;;;;;;;;6267517;28;20135;-72
2022/01/14 12:29:16;;;;;;;10.70;5.30;;;;;;;;;;6268108;28;20037;-72
2022/01/14 12:32:22;;;;;;;9.65;5.03;;;;;;;;;;6249731;28;20041;-72
2022/01/14 12:35:27;;;;;;;10.68;4.82;;;;;;;;;;6249805;28;20428;-71
2022/01/14 12:38:32;;;;;;;11.63;5.57;;;;;;;;;;6267884;28;20128;-70
2022/01/14 12:41:51;;;;;;;10.07;4.90;;;;;;;;;;6266886;28;20056;-70
2022/01/14 12:44:54;;;;;;;23.52;10.23;;;;;;;;;;6266519;28;20057;-71
2022/01/14 12:48:13;;;;;;;17.45;7.78;;;;;;;;;;6265740;28;20103;-72
2022/01/14 12:51:17;;;;;;;10.63;5.05;;;;;;;;;;6246346;28;20364;-70
2022/01/14 12:54:21;;;;;;;12.98;5.65;;;;;;;;;;6267153;28;20119;-70
2022/01/14 12:57:25;;;;;;;11.48;5.32;;;;;;;;;;6267529;28;20055;-70
2022/01/14 13:00:28;;;;;;;17.27;5.35;;;;;;;;;;6267607;28;20052;-69
2022/01/14 13:03:33;;;;;;;11.82;5.60;;;;;;;;;;6249560;28;20045;-70
2022/01/14 13:06:43;;;;;;;12.38;5.50;;;;;;;;;;6249498;28;20053;-70
2022/01/14 13:09:49;;;;;;;10.75;5.55;;;;;;;;;;6266483;28;20094;-72
2022/01/14 13:12:53;;;;;;;11.40;5.47;;;;;;;;;;6249619;28;20833;-70
2022/01/14 13:16:00;;;;;;;10.23;4.97;;;;;;;;;;6266842;28;20045;-73
2022/01/14 13:19:05;;;;;;;10.95;5.28;;;;;;;;;;6249558;28;20045;-74
2022/01/14 13:22:12;;;;;;;13.57;5.78;;;;;;;;;;6249527;28;20467;-72
2022/01/14 13:25:16;;;;;;;10.80;4.78;;;;;;;;;;6249124;28;20048;-72
2022/01/14 13:28:20;;;;;;;12.35;5.30;;;;;;;;;;6267085;28;20649;-74
2022/01/14 13:31:23;;;;;;;12.57;6.07;;;;;;;;;;6249062;28;20049;-71
2022/01/14 13:34:28;;;;;;;10.93;5.10;;;;;;;;;;6249476;28;20053;-73
2022/01/14 13:37:33;;;;;;;11.85;5.47;;;;;;;;;;6248615;28;20095;-73
2022/01/14 13:40:43;;;;;;;16.63;5.60;;;;;;;;;;6267120;28;20041;-72
2022/01/14 13:43:46;;;;;;;13.93;6.30;;;;;;;;;;6266907;28;20472;-73
2022/01/14 13:46:53;;;;;;;12.65;5.65;;;;;;;;;;6266292;28;20085;-73
2022/01/14 13:50:11;;;;;;;11.90;5.60;;;;;;;;;;6249069;28;20467;-72
2022/01/14 13:53:15;;;;;;;12.00;5.70;;;;;;;;;;6248983;28;20049;-70
2022/01/14 13:56:21;;;;;;;11.02;5.60;;;;;;;;;;6254805;28;20102;-69
2022/01/14 13:59:26;;;;;;;15.13;5.47;;;;;;;;;;6265046;28;20087;-70
2022/01/14 14:02:30;;;;;;;20.05;10.68;;;;;;;;;;6265595;28;20040;-70
2022/01/14 14:05:36;;;;;;;10.48;5.32;;;;;;;;;;6266682;28;20048;-70
2022/01/14 14:08:50;;;;;;;12.63;5.22;;;;;;;;;;6266695;28;20045;-70
2022/01/14 14:12:09;;;;;;;13.45;5.32;;;;;;;;;;6241688;28;20076;-70
2022/01/14 14:18:39;;;;;;;12.98;5.00;;;;;;;;;;6224275;28;20041;-68
2022/01/14 14:21:45;;;;;;;12.38;5.88;;;;;;;;;;6243659;28;20096;-68
2022/01/14 14:24:55;;;;;;;11.73;5.15;;;;;;;;;;6228294;28;20412;-69
2022/01/14 14:28:00;;;;;;;10.45;5.03;;;;;;;;;;6246231;28;20045;-68
2022/01/14 14:31:04;;;;;;;13.45;6.18;;;;;;;;;;6246513;28;20068;-69
2022/01/14 14:34:07;;;;;;;10.35;5.30;;;;;;;;;;6227713;28;20037;-70
2022/01/14 14:37:11;;;;;;;11.63;5.43;;;;;;;;;;6246144;28;20422;-70
2022/01/14 14:40:18;;;;;;;10.00;5.30;;;;;;;;;;6228251;28;20053;-70
2022/01/14 14:43:22;;;;;;;11.35;5.55;;;;;;;;;;6262733;28;20664;-71
2022/01/14 14:46:26;;;;;;;25.77;12.18;;;;;;;;;;6254824;28;20052;-70
2022/01/14 14:49:31;;;;;;;12.52;5.45;;;;;;;;;;6266530;28;20045;-71
2022/01/14 14:52:36;;;;;;;10.02;5.22;;;;;;;;;;6252486;28;20041;-70
2022/01/14 14:55:38;;;;;;;11.95;5.22;;;;;;;;;;6251398;28;20090;-70
2022/01/14 14:58:44;;;;;;;9.52;5.00;;;;;;;;;;6270423;28;20053;-70
2022/01/14 15:01:48;;;;;;;11.68;5.72;;;;;;;;;;6269654;28;20048;-71
2022/01/14 15:04:55;;;;;;;10.77;4.57;;;;;;;;;;6251795;28;20048;-69
2022/01/14 15:07:59;;;;;;;8.43;4.32;;;;;;;;;;6250774;28;20127;-70
2022/01/14 15:11:02;;;;;;;12.65;4.85;;;;;;;;;;6251268;28;20045;-70
2022/01/14 15:14:05;;;;;;;10.48;4.78;;;;;;;;;;6251634;28;20071;-70
2022/01/14 15:18:10;;;;;;;11.25;5.05;;;;;;;;;;6268357;28;20045;-70
2022/01/14 15:20:44;;;;;;;10.07;4.90;;;;;;;;;;6266750;28;20511;-70
2022/01/14 15:23:51;;;;;;;12.23;5.40;;;;;;;;;;6266669;28;20476;-70
2022/01/14 15:26:54;;;;;;;13.05;6.53;;;;;;;;;;6248876;28;20057;-70
2022/01/14 15:30:00;;;;;;;15.52;6.03;;;;;;;;;;6266012;28;20052;-69
2022/01/14 15:33:04;;;;;;;12.90;6.13;;;;;;;;;;6266976;28;20121;-70
2022/01/14 15:36:07;;;;;;;11.43;5.65;;;;;;;;;;6269180;28;20045;-69
2022/01/14 15:39:11;;;;;;;14.10;6.32;;;;;;;;;;6268750;28;20491;-71
2022/01/14 15:42:16;;;;;;;15.50;6.22;;;;;;;;;;6250676;28;20498;-70
2022/01/14 15:45:19;;;;;;;11.90;6.00;;;;;;;;;;6257399;28;20411;-71
2022/01/14 15:48:22;;;;;;;10.27;5.18;;;;;;;;;;6242701;28;20045;-70
2022/01/14 15:51:25;;;;;;;12.48;5.90;;;;;;;;;;6256185;28;20402;-69
2022/01/14 15:54:30;;;;;;;10.90;5.85;;;;;;;;;;6250479;28;20041;-71
2022/01/14 15:57:35;;;;;;;13.50;6.15;;;;;;;;;;6250550;28;20044;-69
2022/01/14 16:00:41;;;;;;;;;;;;;;;;;;6265470;28;20049;-69
2022/01/14 16:03:44;;;;;;;12.98;6.00;;;;;;;;;;6260850;28;19925;-69
2022/01/14 16:06:47;;;;;;;12.20;5.60;;;;;;;;;;6237658;28;20041;-69
2022/01/14 16:09:55;;;;;;;12.55;5.70;;;;;;;;;;6262275;28;20059;-69
2022/01/14 16:13:01;;;;;;;12.05;5.60;;;;;;;;;;6267937;28;20098;-69
2022/01/14 16:16:04;;;;;;;12.63;5.75;;;;;;;;;;6267813;28;20183;-70
2022/01/14 16:19:07;;;;;;;11.30;6.07;;;;;;;;;;6244941;28;20087;-72
2022/01/14 16:22:10;;;;;;;12.20;5.97;;;;;;;;;;6253959;28;20041;-70
2022/01/14 16:25:15;;;;;;;10.88;5.65;;;;;;;;;;6252280;28;20048;-70
2022/01/14 16:28:18;;;;;;;14.52;6.18;;;;;;;;;;6225589;28;20045;-71
2022/01/14 16:31:21;;;;;;;11.43;5.75;;;;;;;;;;6242889;28;20050;-69
2022/01/14 16:34:27;;;;;;;12.30;5.93;;;;;;;;;;6225324;28;20052;-69
2022/01/14 16:37:30;;;;;;;12.07;6.32;;;;;;;;;;6225172;28;20041;-69
2022/01/14 16:40:35;;;;;;;14.75;6.53;;;;;;;;;;6243601;28;20121;-70
2022/01/14 16:43:38;;;;;;;14.85;6.35;;;;;;;;;;6242012;28;20058;-70
2022/01/14 16:46:41;;;;;;;14.60;6.28;;;;;;;;;;6225412;28;20041;-70
2022/01/14 16:49:44;;;;;;;13.73;6.32;;;;;;;;;;6243070;28;20175;-69
2022/01/14 16:52:48;;;;;;;12.88;6.53;;;;;;;;;;6242140;28;20415;-69
2022/01/14 16:55:52;;;;;;;12.90;5.85;;;;;;;;;;6253600;28;20041;-69
2022/01/14 16:58:55;;;;;;;13.60;6.07;;;;;;;;;;6267432;28;20095;-69
2022/01/14 17:01:58;;;;;;;13.73;6.53;;;;;;;;;;6249199;28;20409;-68
2022/01/14 17:05:01;;;;;;;16.42;6.57;;;;;;;;;;6266662;28;20037;-70
2022/01/14 17:08:08;;;;;;;15.35;7.40;;;;;;;;;;6267660;28;20051;-70
2022/01/14 17:11:12;;;;;;;14.38;6.93;;;;;;;;;;6266718;28;20041;-69
2022/01/14 17:14:15;;;;;;;15.13;6.25;;;;;;;;;;6264729;28;20045;-69
2022/01/14 17:17:21;;;;;;;13.32;6.60;;;;;;;;;;6255120;28;20124;-68
2022/01/14 17:20:26;;;;;;;15.38;6.68;;;;;;;;;;6240891;28;20053;-69
2022/01/14 17:23:29;;;;;;;13.38;6.80;;;;;;;;;;6242184;28;20156;-68
2022/01/14 17:26:35;;;;;;;14.07;7.03;;;;;;;;;;6241456;28;20041;-69
2022/01/14 17:29:40;;;;;;;12.85;6.13;;;;;;;;;;6242070;28;20041;-70
2022/01/14 17:32:44;;;;;;;13.25;5.95;;;;;;;;;;6242539;28;20053;-69
2022/01/14 17:35:47;;;;;;;19.10;6.53;;;;;;;;;;6241694;28;20120;-68
2022/01/14 17:38:51;;;;;;;13.95;6.32;;;;;;;;;;6240605;28;20061;-69
2022/01/14 17:41:56;;;;;;;12.70;6.22;;;;;;;;;;6252250;28;20132;-69
2022/01/14 17:45:02;;;;;;;15.90;6.03;;;;;;;;;;6260637;28;20060;-69
2022/01/14 17:48:05;;;;;;;14.18;6.32;;;;;;;;;;6266264;28;20122;-70
2022/01/14 17:51:08;;;;;;;14.73;6.70;;;;;;;;;;6265016;28;20091;-68
2022/01/14 17:54:11;;;;;;;14.82;7.13;;;;;;;;;;6253887;28;20064;-69
2022/01/14 17:57:15;;;;;;;15.07;6.68;;;;;;;;;;6250940;28;20098;-70
2022/01/14 18:00:19;;;;;;;11.52;6.05;;;;;;;;;;6271490;28;20052;-70
2022/01/14 18:03:25;;;;;;;12.32;6.25;;;;;;;;;;6253444;28;20053;-70
2022/01/14 18:06:28;;;;;;;13.13;5.97;;;;;;;;;;6252799;28;20499;-70
2022/01/14 18:09:32;;;;;;;12.57;5.90;;;;;;;;;;6249990;28;20045;-68
2022/01/14 18:12:48;;;;;;;12.35;5.93;;;;;;;;;;6252855;28;20430;-70
2022/01/14 18:15:53;;;;;;;15.55;6.13;;;;;;;;;;6252182;28;20462;-68
2022/01/14 18:18:57;;;;;;;12.77;5.72;;;;;;;;;;6267824;28;20398;-69
2022/01/14 18:22:00;;;;;;;13.32;5.68;;;;;;;;;;6268097;28;20483;-68
2022/01/14 18:25:03;;;;;;;13.55;6.93;;;;;;;;;;6268045;28;20041;-70
2022/01/14 18:28:08;;;;;;;14.70;6.13;;;;;;;;;;6267771;28;20044;-69
2022/01/14 18:31:13;;;;;;;15.18;6.13;;;;;;;;;;6249621;28;20107;-69
2022/01/14 18:34:16;;;;;;;14.45;6.05;;;;;;;;;;6249977;28;20053;-69
2022/01/14 18:37:21;;;;;;;14.43;6.47;;;;;;;;;;6252320;28;20040;-69